createdAt,value
2022-10-24T00:00:13.302Z,4.63
2022-10-24T00:03:17.040Z,4.40
2022-10-24T00:06:21.250Z,5.00
2022-10-24T00:09:24.392Z,4.83
2022-10-24T00:12:27.578Z,5.00
2022-10-24T00:15:32.145Z,3.87
2022-10-24T00:18:35.769Z,4.93
2022-10-24T00:21:39.148Z,4.20
2022-10-24T00:24:42.270Z,4.70
2022-10-24T00:27:45.397Z,4.70
2022-10-24T00:30:53.764Z,4.63
2022-10-24T00:33:57.702Z,4.40
2022-10-24T00:37:00.824Z,4.03
2022-10-24T00:40:05.383Z,4.67
2022-10-24T00:43:14.932Z,4.37
2022-10-24T00:46:21.056Z,4.10
2022-10-24T00:49:28.320Z,4.13
2022-10-24T00:52:35.365Z,3.73
2022-10-24T00:55:39.106Z,7.30
2022-10-24T00:58:44.714Z,4.67
2022-10-24T01:01:49.395Z,4.13
2022-10-24T01:04:54.237Z,3.70
2022-10-24T01:08:09.224Z,4.60
2022-10-24T01:11:21.775Z,4.73
2022-10-24T01:14:37.305Z,4.23
2022-10-24T01:17:47.090Z,3.93
2022-10-24T01:21:04.548Z,4.10
2022-10-24T01:24:30.501Z,3.90
2022-10-24T01:27:49.303Z,4.70
2022-10-24T01:31:03.084Z,4.50
2022-10-24T01:34:15.639Z,5.30
2022-10-24T01:37:25.048Z,6.70
2022-10-24T01:40:32.553Z,6.13
2022-10-24T01:43:40.394Z,6.53
2022-10-24T01:46:51.746Z,7.20
2022-10-24T01:49:59.633Z,7.70
2022-10-24T01:53:03.708Z,7.10
2022-10-24T01:56:07.807Z,8.50
2022-10-24T01:59:41.861Z,6.90
2022-10-24T02:02:50.518Z,7.53
2022-10-24T02:05:57.268Z,7.40
2022-10-24T02:09:06.451Z,8.10
2022-10-24T02:12:11.819Z,8.27
2022-10-24T02:15:20.310Z,8.50
2022-10-24T02:18:25.225Z,7.00
2022-10-24T02:21:32.776Z,7.60
2022-10-24T02:24:40.433Z,8.53
2022-10-24T02:27:49.163Z,8.30
2022-10-24T02:30:59.762Z,8.43
2022-10-24T02:34:07.109Z,8.43
2022-10-24T02:37:13.071Z,7.40
2022-10-24T02:40:19.951Z,7.20
2022-10-24T02:43:23.682Z,7.70
2022-10-24T02:46:28.312Z,5.73
2022-10-24T02:49:32.890Z,5.23
2022-10-24T02:52:37.304Z,4.20
2022-10-24T02:55:40.464Z,4.37
2022-10-24T02:58:43.671Z,3.53
2022-10-24T03:01:46.928Z,3.87
2022-10-24T03:04:51.467Z,4.57
2022-10-24T03:07:54.644Z,3.87
2022-10-24T03:10:57.912Z,4.40
2022-10-24T03:14:00.996Z,4.17
2022-10-24T03:17:04.100Z,4.00
2022-10-24T03:20:09.927Z,4.00
2022-10-24T03:23:13.351Z,4.83
2022-10-24T03:26:16.717Z,4.17
2022-10-24T03:29:19.956Z,4.10
2022-10-24T03:32:23.219Z,4.00
2022-10-24T03:35:27.821Z,4.17
2022-10-24T03:38:30.896Z,4.37
2022-10-24T03:41:34.009Z,4.23
2022-10-24T03:44:37.125Z,4.60
2022-10-24T03:47:40.290Z,4.87
2022-10-24T03:50:44.762Z,4.13
2022-10-24T03:53:47.896Z,3.50
2022-10-24T03:56:50.989Z,4.20
2022-10-24T03:59:54.073Z,4.00
2022-10-24T04:02:57.542Z,3.63
2022-10-24T04:06:02.022Z,4.57
2022-10-24T04:09:05.737Z,3.93
2022-10-24T04:12:08.921Z,4.20
2022-10-24T04:15:12.936Z,4.17
2022-10-24T04:18:16.073Z,10.50
2022-10-24T04:21:22.010Z,4.93
2022-10-24T04:24:25.349Z,4.77
2022-10-24T04:27:28.658Z,4.50
2022-10-24T04:30:32.051Z,4.20
2022-10-24T04:33:36.361Z,4.70
2022-10-24T04:36:40.991Z,4.30
2022-10-24T04:39:44.088Z,4.10
2022-10-24T04:42:47.569Z,4.23
2022-10-24T04:45:51.248Z,4.80
2022-10-24T04:48:54.655Z,4.43
2022-10-24T04:51:59.185Z,4.87
2022-10-24T04:55:02.319Z,5.67
2022-10-24T04:58:06.006Z,5.33
2022-10-24T05:01:09.228Z,4.73
2022-10-24T05:04:12.700Z,5.30
2022-10-24T05:07:17.222Z,4.80
2022-10-24T05:10:20.539Z,5.83
2022-10-24T05:13:23.716Z,5.13
2022-10-24T05:16:26.862Z,5.50
2022-10-24T05:19:30.108Z,6.07
2022-10-24T05:22:34.944Z,6.60
2022-10-24T05:25:38.145Z,5.83
2022-10-24T05:28:41.304Z,6.27
2022-10-24T05:31:44.431Z,9.10
2022-10-24T05:34:47.593Z,7.67
2022-10-24T05:37:52.032Z,8.23
2022-10-24T05:40:55.197Z,8.27
2022-10-24T05:43:58.340Z,6.73
2022-10-24T05:47:01.735Z,6.43
2022-10-24T05:50:05.903Z,6.70
2022-10-24T05:53:10.614Z,8.27
2022-10-24T05:56:13.709Z,17.00
2022-10-24T05:59:16.903Z,20.93
2022-10-24T06:02:21.738Z,5.60
2022-10-24T06:05:24.931Z,6.00
2022-10-24T06:08:29.390Z,6.57
2022-10-24T06:11:32.510Z,9.63
2022-10-24T06:14:35.901Z,10.30
2022-10-24T06:17:39.061Z,8.70
2022-10-24T06:20:42.201Z,10.80
2022-10-24T06:23:46.759Z,9.60
2022-10-24T06:26:49.896Z,6.50
2022-10-24T06:29:52.993Z,6.03
2022-10-24T06:32:56.121Z,8.17
2022-10-24T06:36:00.813Z,8.97
2022-10-24T06:39:05.446Z,10.50
2022-10-24T06:42:08.559Z,9.60
2022-10-24T06:45:12.281Z,6.10
2022-10-24T06:48:15.453Z,5.53
2022-10-24T06:51:18.585Z,6.70
2022-10-24T06:54:25.210Z,6.17
2022-10-24T06:57:30.961Z,7.33
2022-10-24T07:00:34.309Z,7.40
2022-10-24T07:03:37.621Z,6.73
2022-10-24T07:06:40.908Z,7.50
2022-10-24T07:09:45.598Z,7.80
2022-10-24T07:12:48.785Z,7.90
2022-10-24T07:15:54.381Z,7.40
2022-10-24T07:18:57.687Z,7.80
2022-10-24T07:22:00.946Z,7.40
2022-10-24T07:25:06.359Z,7.07
2022-10-24T07:28:11.149Z,7.50
2022-10-24T07:31:15.206Z,7.47
2022-10-24T07:34:19.109Z,8.27
2022-10-24T07:37:22.298Z,6.70
2022-10-24T07:40:26.827Z,8.20
2022-10-24T07:43:29.956Z,9.90
2022-10-24T07:46:33.260Z,7.90
2022-10-24T07:49:36.571Z,8.83
2022-10-24T07:52:40.042Z,8.70
2022-10-24T07:55:45.483Z,7.67
2022-10-24T07:58:48.820Z,7.90
2022-10-24T08:01:51.958Z,7.30
2022-10-24T08:04:55.113Z,6.60
2022-10-24T08:08:12.141Z,7.60
2022-10-24T08:11:24.913Z,6.33
2022-10-24T08:14:28.110Z,6.23
2022-10-24T08:17:31.258Z,7.77
2022-10-24T08:20:34.631Z,7.20
2022-10-24T08:23:41.398Z,6.63
2022-10-24T08:26:45.969Z,6.83
2022-10-24T08:29:49.087Z,8.90
2022-10-24T08:32:52.188Z,7.07
2022-10-24T08:35:57.995Z,6.63
2022-10-24T08:39:02.263Z,13.77
2022-10-24T08:42:11.997Z,10.77
2022-10-24T08:45:20.760Z,17.40
2022-10-24T08:48:28.455Z,24.33
2022-10-24T08:51:40.388Z,12.40
2022-10-24T08:54:45.686Z,7.27
2022-10-24T08:57:53.331Z,8.23
2022-10-24T09:00:58.574Z,7.90
2022-10-24T09:04:07.152Z,6.77
2022-10-24T09:07:18.290Z,5.87
2022-10-24T09:10:27.270Z,5.20
2022-10-24T09:13:34.124Z,7.17
2022-10-24T09:16:37.535Z,5.77
2022-10-24T09:19:40.858Z,6.23
2022-10-24T09:22:44.591Z,5.90
2022-10-24T09:25:51.750Z,6.93
2022-10-24T09:28:57.155Z,5.70
2022-10-24T09:32:00.687Z,5.40
2022-10-24T09:35:07.286Z,5.63
2022-10-24T09:38:28.477Z,5.63
2022-10-24T09:41:33.343Z,5.20
2022-10-24T09:44:41.120Z,4.70
2022-10-24T09:47:44.649Z,5.17
2022-10-24T09:50:50.757Z,4.87
2022-10-24T09:54:03.932Z,4.37
2022-10-24T10:00:28.457Z,4.80
2022-10-24T10:03:32.089Z,4.20
2022-10-24T10:06:35.357Z,5.22
2022-10-24T10:09:42.308Z,4.95
2022-10-24T10:12:48.124Z,4.22
2022-10-24T10:15:55.494Z,4.10
2022-10-24T10:19:04.195Z,4.20
2022-10-24T10:22:22.187Z,4.03
2022-10-24T10:25:32.910Z,5.63
2022-10-24T10:28:38.420Z,4.80
2022-10-24T10:31:44.857Z,4.23
2022-10-24T10:34:52.585Z,4.43
2022-10-24T10:38:00.903Z,4.60
2022-10-24T10:41:13.892Z,4.43
2022-10-24T10:44:27.931Z,4.40
2022-10-24T10:47:43.574Z,4.20
2022-10-24T10:50:53.204Z,4.30
2022-10-24T10:54:07.915Z,4.83
2022-10-24T10:57:14.085Z,5.20
2022-10-24T11:00:20.690Z,4.03
2022-10-24T11:03:38.643Z,4.90
2022-10-24T11:06:51.170Z,3.83
2022-10-24T11:09:57.597Z,3.90
2022-10-24T11:13:07.270Z,4.40
2022-10-24T11:16:15.621Z,5.30
2022-10-24T11:19:27.933Z,4.30
2022-10-24T11:22:36.094Z,5.00
2022-10-24T11:25:44.113Z,5.53
2022-10-24T11:28:53.438Z,5.00
2022-10-24T11:32:00.604Z,5.40
2022-10-24T11:35:15.141Z,5.20
2022-10-24T11:38:22.176Z,4.80
2022-10-24T11:41:40.551Z,5.40
2022-10-24T11:44:49.200Z,5.67
2022-10-24T11:48:00.978Z,5.03
2022-10-24T11:51:14.043Z,5.10
2022-10-24T11:54:22.261Z,5.80
2022-10-24T11:57:28.378Z,4.93
2022-10-24T12:00:35.940Z,5.10
2022-10-24T12:04:06.332Z,5.73
2022-10-24T12:07:41.398Z,5.60
2022-10-24T12:10:59.104Z,5.90
2022-10-24T12:14:34.360Z,5.50
2022-10-24T12:17:48.573Z,5.33
2022-10-24T12:20:53.234Z,5.00
2022-10-24T12:24:00.473Z,4.20
2022-10-24T12:27:07.050Z,4.10
2022-10-24T12:30:18.667Z,4.33
2022-10-24T12:33:27.918Z,6.20
2022-10-24T12:37:08.227Z,4.87
2022-10-24T12:40:55.642Z,5.33
2022-10-24T12:44:36.781Z,5.70
2022-10-24T12:47:41.632Z,5.97
2022-10-24T12:51:07.036Z,6.00
2022-10-24T12:54:18.221Z,6.03
2022-10-24T12:57:29.100Z,6.73
2022-10-24T13:00:33.765Z,6.30
2022-10-24T13:04:14.783Z,6.53
2022-10-24T13:07:30.945Z,6.37
2022-10-24T13:10:46.794Z,6.60
2022-10-24T13:14:18.937Z,7.00
2022-10-24T13:17:33.546Z,6.10
2022-10-24T13:20:40.721Z,6.97
2022-10-24T13:23:45.957Z,6.93
2022-10-24T13:26:51.408Z,7.40
2022-10-24T13:30:24.203Z,6.70
2022-10-24T13:33:44.051Z,7.47
2022-10-24T13:36:50.972Z,7.33
2022-10-24T13:39:57.541Z,7.00
2022-10-24T13:43:07.444Z,7.53
2022-10-24T13:46:20.095Z,7.17
2022-10-24T13:49:29.758Z,7.40
2022-10-24T13:52:39.430Z,7.30
2022-10-24T13:55:46.589Z,7.77
2022-10-24T13:58:49.718Z,7.03
2022-10-24T14:01:54.312Z,6.47
2022-10-24T14:04:58.436Z,6.60
2022-10-24T14:08:03.005Z,7.07
2022-10-24T14:11:08.717Z,9.60
2022-10-24T14:14:26.509Z,6.50
2022-10-24T14:17:33.768Z,7.20
2022-10-24T14:20:38.555Z,6.40
2022-10-24T14:23:42.689Z,7.30
2022-10-24T14:26:47.236Z,7.37
2022-10-24T14:29:56.675Z,6.53
2022-10-24T14:33:21.848Z,6.03
2022-10-24T14:36:28.707Z,5.67
2022-10-24T14:39:32.177Z,6.70
2022-10-24T14:42:35.986Z,6.30
2022-10-24T14:45:39.448Z,6.07
2022-10-24T14:48:45.962Z,6.53
2022-10-24T14:51:50.697Z,9.87
2022-10-24T14:54:58.929Z,8.00
2022-10-24T14:58:02.225Z,7.80
2022-10-24T15:01:05.723Z,7.43
2022-10-24T15:04:32.214Z,5.67
2022-10-24T15:07:40.697Z,6.20
2022-10-24T15:10:48.218Z,6.93
2022-10-24T15:14:06.652Z,7.07
2022-10-24T15:17:28.434Z,6.73
2022-10-24T15:20:41.074Z,7.50
2022-10-24T15:23:48.897Z,7.53
2022-10-24T15:26:52.360Z,7.97
2022-10-24T15:29:55.640Z,7.60
2022-10-24T15:33:01.006Z,7.27
2022-10-24T15:36:06.297Z,7.20
2022-10-24T15:39:14.355Z,7.70
2022-10-24T15:42:20.112Z,19.07
2022-10-24T15:45:26.182Z,11.67
2022-10-24T15:48:29.630Z,8.70
2022-10-24T15:51:34.810Z,8.77
2022-10-24T15:54:38.073Z,9.33
2022-10-24T15:57:41.287Z,11.60
2022-10-24T16:00:44.595Z,9.27
2022-10-24T16:03:47.804Z,11.50
2022-10-24T16:06:53.266Z,8.40
2022-10-24T16:09:58.045Z,11.20
2022-10-24T16:13:01.330Z,14.53
2022-10-24T16:16:04.450Z,18.23
2022-10-24T16:19:09.605Z,13.07
2022-10-24T16:22:15.520Z,13.47
2022-10-24T16:25:21.053Z,12.70
2022-10-24T16:28:26.073Z,18.63
2022-10-24T16:31:29.504Z,25.27
2022-10-24T16:34:33.248Z,22.43
2022-10-24T16:37:38.246Z,22.70
2022-10-24T16:40:45.813Z,17.00
2022-10-24T16:43:50.417Z,13.07
2022-10-24T16:46:54.516Z,12.10
2022-10-24T16:49:59.288Z,10.70
2022-10-24T16:53:09.026Z,24.03
2022-10-24T16:56:14.137Z,20.40
2022-10-24T16:59:18.189Z,18.10
2022-10-24T17:02:21.895Z,22.40
2022-10-24T17:05:27.607Z,20.27
2022-10-24T17:08:33.227Z,15.97
2022-10-24T17:11:45.391Z,15.20
2022-10-24T17:14:50.137Z,13.00
2022-10-24T17:17:54.598Z,14.37
2022-10-24T17:21:11.675Z,12.00
2022-10-24T17:24:20.497Z,11.63
2022-10-24T17:27:25.912Z,13.97
2022-10-24T17:30:31.553Z,13.03
2022-10-24T17:33:37.350Z,26.50
2022-10-24T17:36:43.419Z,14.87
2022-10-24T17:39:52.202Z,11.80
2022-10-24T17:42:56.771Z,9.73
2022-10-24T17:46:01.487Z,12.23
2022-10-24T17:49:05.728Z,11.07
2022-10-24T17:52:12.986Z,11.40
2022-10-24T17:55:41.392Z,36.87
2022-10-24T17:58:51.096Z,22.33
2022-10-24T18:01:54.978Z,19.23
2022-10-24T18:05:02.581Z,17.77
2022-10-24T18:08:07.309Z,11.07
2022-10-24T18:11:15.350Z,4.73
2022-10-24T18:14:20.889Z,4.00
2022-10-24T18:17:25.199Z,3.50
2022-10-24T18:20:35.925Z,2.93
2022-10-24T18:23:41.321Z,2.57
2022-10-24T18:26:48.337Z,3.60
2022-10-24T18:29:53.185Z,2.77
2022-10-24T18:32:58.531Z,3.07
2022-10-24T18:36:08.096Z,2.37
2022-10-24T18:39:13.839Z,2.70
2022-10-24T18:42:27.799Z,1.93
2022-10-24T18:45:44.035Z,1.63
2022-10-24T18:48:52.579Z,1.70
2022-10-24T18:52:16.586Z,2.20
2022-10-24T18:55:22.836Z,1.40
2022-10-24T18:58:29.157Z,1.40
2022-10-24T19:01:41.251Z,1.53
2022-10-24T19:04:48.820Z,1.40
2022-10-24T19:07:54.331Z,1.20
2022-10-24T19:10:59.625Z,1.33
2022-10-24T19:14:06.071Z,1.43
2022-10-24T19:17:14.900Z,1.47
2022-10-24T19:20:24.548Z,0.80
2022-10-24T19:23:30.271Z,1.20
2022-10-24T19:26:37.761Z,1.37
2022-10-24T19:29:43.717Z,0.97
2022-10-24T19:32:48.974Z,1.20
2022-10-24T19:35:54.993Z,1.00
2022-10-24T19:38:59.687Z,1.40
2022-10-24T19:42:03.895Z,1.20
2022-10-24T19:45:11.362Z,0.93
2022-10-24T19:48:19.980Z,1.00
2022-10-24T19:51:25.770Z,1.00
2022-10-24T19:54:30.754Z,0.50
2022-10-24T19:57:35.062Z,0.90
2022-10-24T20:00:41.862Z,0.87
2022-10-24T20:03:47.203Z,8.93
2022-10-24T20:06:52.134Z,3.30
2022-10-24T20:09:56.430Z,6.80
2022-10-24T20:13:01.383Z,3.00
2022-10-24T20:16:08.005Z,2.80
2022-10-24T20:19:12.157Z,1.90
2022-10-24T20:22:16.519Z,2.00
2022-10-24T20:25:20.954Z,1.80
2022-10-24T20:28:25.517Z,1.97
2022-10-24T20:31:33.259Z,2.83
2022-10-24T20:34:37.312Z,2.60
2022-10-24T20:37:41.263Z,2.40
2022-10-24T20:40:44.988Z,2.10
2022-10-24T20:46:59.183Z,2.40
2022-10-24T20:50:02.303Z,2.20
2022-10-24T20:53:05.446Z,2.60
2022-10-24T20:56:10.492Z,3.60
2022-10-24T20:59:14.473Z,16.07
2022-10-24T21:02:19.244Z,2.93
2022-10-24T21:05:25.691Z,3.23
2022-10-24T21:08:29.344Z,2.40
2022-10-24T21:11:34.771Z,3.00
2022-10-24T21:14:41.320Z,4.60
2022-10-24T21:17:46.128Z,4.70
2022-10-24T21:20:49.362Z,3.73
2022-10-24T21:23:52.847Z,3.40
2022-10-24T21:26:56.172Z,3.30
2022-10-24T21:29:59.306Z,3.80
2022-10-24T21:33:03.836Z,3.70
2022-10-24T21:36:08.777Z,3.60
2022-10-24T21:39:13.868Z,3.43
2022-10-24T21:42:17.032Z,3.90
2022-10-24T21:45:20.172Z,3.33
2022-10-24T21:48:24.681Z,3.80
2022-10-24T21:51:29.297Z,3.47
2022-10-24T21:54:32.565Z,6.07
2022-10-24T21:57:35.701Z,3.70
2022-10-24T22:00:40.419Z,4.50
2022-10-24T22:03:45.226Z,4.50
2022-10-24T22:06:48.703Z,4.80
2022-10-24T22:09:51.847Z,5.00
2022-10-24T22:12:54.971Z,4.53
2022-10-24T22:15:58.551Z,4.03
2022-10-24T22:19:04.986Z,3.87
2022-10-24T22:22:08.126Z,3.90
2022-10-24T22:25:12.735Z,3.23
2022-10-24T22:28:16.285Z,4.33
2022-10-24T22:31:20.178Z,4.93
2022-10-24T22:34:26.766Z,4.00
2022-10-24T22:37:32.724Z,4.03
2022-10-24T22:40:36.465Z,4.30
2022-10-24T22:43:40.242Z,4.53
2022-10-24T22:47:09.981Z,4.60
2022-10-24T22:50:41.100Z,3.70
2022-10-24T22:53:44.883Z,4.23
2022-10-24T22:56:48.699Z,4.70
2022-10-24T22:59:52.243Z,4.60
2022-10-24T23:03:02.233Z,4.80
2022-10-24T23:06:15.632Z,5.00
2022-10-24T23:09:19.094Z,3.80
2022-10-24T23:12:23.994Z,3.60
2022-10-24T23:15:27.758Z,3.30
2022-10-24T23:18:31.276Z,3.13
2022-10-24T23:21:42.811Z,2.70
2022-10-24T23:24:46.551Z,2.27
2022-10-24T23:27:57.870Z,2.20
2022-10-24T23:34:07.253Z,2.63
2022-10-24T23:37:18.099Z,3.80
2022-10-24T23:40:32.464Z,2.30
2022-10-24T23:43:35.969Z,2.37
2022-10-24T23:46:42.133Z,2.00
2022-10-24T23:49:50.991Z,2.27
2022-10-24T23:53:03.744Z,1.70
2022-10-24T23:56:10.205Z,1.90
2022-10-24T23:59:13.323Z,2.40
